Time;durP1;ratioP1;P1;durP2;ratioP2;P2;SDS_P1;SDS_P2;PMS_P1;PMS_P2;Temp;Humidity;BMP_temperature;BMP_pressure;BME280_temperature;BME280_humidity;BME280_pressure;Samples;Min_cycle;Max_cycle;Signal;HPM_P1;HPM_P2
2021/06/03 00:00:31;;;;;;;6.13;4.28;;;15.00;99.90;;;14.61;94.43;97784.41;5067826;28;20390;-70
2021/06/03 00:02:58;;;;;;;7.47;4.85;;;14.90;99.90;;;14.53;95.10;97795.25;5051515;28;20043;-69
2021/06/03 00:05:31;;;;;;;10.10;5.97;;;14.90;99.90;;;14.62;93.78;97789.53;5053723;28;20597;-70
2021/06/03 00:07:58;;;;;;;7.57;5.15;;;14.80;99.90;;;14.33;95.53;97798.94;5051205;28;20044;-70
2021/06/03 00:10:29;;;;;;;7.80;5.38;;;14.90;99.90;;;14.41;94.45;97793.28;5033953;28;20049;-71
2021/06/03 00:12:57;;;;;;;6.85;4.57;;;15.00;99.90;;;14.48;93.67;97797.25;5062118;28;20390;-70
2021/06/03 00:15:26;;;;;;;6.18;4.13;;;14.90;99.90;;;14.58;91.79;97798.47;5052180;28;20049;-70
2021/06/03 00:17:54;;;;;;;5.70;3.72;;;15.00;99.90;;;14.65;90.58;97798.97;5034151;28;20072;-70
2021/06/03 00:20:28;;;;;;;9.05;3.20;;;15.00;99.90;;;14.77;90.11;97798.28;5052592;28;20552;-70
2021/06/03 00:22:56;;;;;;;5.60;3.33;;;15.10;99.90;;;14.92;88.94;97793.13;5044461;28;20033;-70
2021/06/03 00:25:24;;;;;;;6.90;3.50;;;15.20;99.90;;;14.85;88.78;97792.66;5049313;28;20044;-70
2021/06/03 00:27:52;;;;;;;6.25;3.40;;;15.30;99.90;;;15.06;88.16;97796.63;5044465;28;20049;-70
2021/06/03 00:30:22;;;;;;;5.68;3.28;;;15.40;99.90;;;15.08;87.36;97800.94;5035346;28;20479;-70
2021/06/03 00:32:50;;;;;;;5.38;3.50;;;15.50;99.90;;;15.16;87.25;97801.34;5045627;28;20056;-70
2021/06/03 00:35:19;;;;;;;6.05;3.45;;;15.50;99.90;;;15.12;86.82;97795.47;5047719;28;20122;-70
2021/06/03 00:37:48;;;;;;;5.80;2.85;;;15.50;99.90;;;15.10;86.74;97802.53;5056790;28;20101;-70
2021/06/03 00:40:19;;;;;;;5.80;2.75;;;15.50;99.90;;;15.06;86.96;97798.41;5061461;28;20063;-70
2021/06/03 00:42:47;;;;;;;10.57;3.58;;;15.50;99.90;;;14.95;87.38;97801.63;5066243;28;20048;-70
2021/06/03 00:45:19;;;;;;;5.55;3.40;;;15.50;99.90;;;14.94;87.28;97799.09;5048595;28;20041;-70
2021/06/03 00:47:46;;;;;;;8.23;2.88;;;15.50;99.90;;;14.92;87.35;97793.13;5031563;28;20052;-70
2021/06/03 00:50:21;;;;;;;8.18;3.47;;;15.40;99.90;;;14.97;87.39;97794.53;5051254;28;20240;-70
2021/06/03 00:52:48;;;;;;;7.60;4.03;;;15.40;99.90;;;14.98;87.19;97791.00;5038137;28;20511;-70
2021/06/03 00:55:16;;;;;;;8.13;3.90;;;15.40;99.90;;;14.95;87.31;97787.72;5036371;28;20052;-70
2021/06/03 00:57:43;;;;;;;4.78;3.30;;;15.50;99.90;;;15.01;87.10;97792.63;5031328;28;20049;-70
2021/06/03 01:00:13;;;;;;;5.95;3.78;;;15.50;99.90;;;15.04;86.82;97784.59;5051889;28;20052;-70
2021/06/03 01:02:41;;;;;;;6.43;4.35;;;15.50;99.90;;;15.06;86.61;97788.78;5019744;28;20502;-70
2021/06/03 01:05:20;;;;;;;7.30;4.07;;;15.50;99.90;;;15.09;86.61;97787.78;5034580;28;20051;-70
2021/06/03 01:07:50;;;;;;;6.38;3.78;;;15.50;99.90;;;14.96;86.47;97784.16;5028621;28;20105;-70
2021/06/03 01:10:59;;;;;;;6.75;4.35;;;15.50;99.90;;;15.01;86.78;97787.38;5037927;28;20049;-70
2021/06/03 01:14:01;;;;;;;6.85;4.00;;;15.50;99.90;;;14.98;86.44;97790.16;5043150;28;20056;-70
2021/06/03 01:16:31;;;;;;;5.35;3.75;;;15.50;99.90;;;15.07;86.21;97794.84;5050456;28;20049;-70
2021/06/03 01:19:01;;;;;;;5.32;3.50;;;15.50;99.90;;;15.10;85.86;97799.94;5039903;28;20383;-70
2021/06/03 01:21:45;;;;;;;8.38;3.88;;;15.50;99.90;;;15.15;85.44;97790.03;5042073;28;20134;-70
2021/06/03 01:24:28;;;;;;;7.22;3.50;;;15.50;99.90;;;15.12;85.36;97795.47;5049618;28;20040;-70
2021/06/03 01:27:21;;;;;;;7.38;3.58;;;15.50;99.90;;;15.09;85.27;97800.00;5050462;28;20033;-70
2021/06/03 01:30:11;;;;;;;8.27;3.50;;;15.50;99.90;;;15.09;84.96;97800.84;5042458;28;20063;-70
2021/06/03 01:32:53;;;;;;;8.20;3.60;;;15.50;99.90;;;14.97;85.14;97805.00;5031723;28;20045;-70
2021/06/03 01:35:28;;;;;;;4.53;3.17;;;15.40;99.90;;;14.55;88.59;97813.47;5061745;28;20049;-70
2021/06/03 01:37:56;;;;;;;6.50;3.65;;;15.40;99.90;;;14.28;90.26;97811.41;5039316;28;20310;-70
2021/06/03 01:40:28;;;;;;;7.15;3.28;;;15.30;99.90;;;14.02;92.47;97816.22;5059093;28;20040;-69
2021/06/03 01:42:56;;;;;;;7.00;4.25;;;15.10;99.90;;;13.79;94.34;97816.59;5033447;28;20036;-71
2021/06/03 01:45:23;;;;;;;6.82;4.00;;;14.90;99.90;;;13.71;95.16;97816.16;5065292;28;20505;-70
2021/06/03 01:47:52;;;;;;;7.03;3.70;;;14.80;99.90;;;13.93;93.59;97821.94;5032515;28;20045;-70
2021/06/03 01:50:21;;;;;;;5.95;4.05;;;14.70;99.90;;;13.76;95.14;97814.16;5033672;28;20036;-70
2021/06/03 01:52:49;;;;;;;5.30;3.88;;;14.60;99.90;;;13.82;94.55;97819.03;5047071;28;20044;-70
2021/06/03 01:55:17;;;;;;;6.65;3.90;;;14.50;99.90;;;13.91;93.84;97820.31;5032698;28;20048;-70
2021/06/03 01:58:05;;;;;;;4.82;3.33;;;14.50;99.90;;;13.97;92.52;97823.47;5063279;28;20045;-70
2021/06/03 02:00:32;;;;;;;5.43;3.22;;;14.50;99.90;;;13.94;92.88;97817.56;5047102;28;20507;-70
2021/06/03 02:03:00;;;;;;;7.03;4.00;;;14.50;99.90;;;14.10;91.80;97818.44;5046933;28;20048;-70
2021/06/03 02:05:27;;;;;;;6.88;4.57;;;14.50;99.90;;;13.97;92.12;97828.69;5060534;28;20045;-70
2021/06/03 02:07:54;;;;;;;9.98;4.72;;;14.50;99.90;;;13.69;94.26;97825.84;5053126;28;20057;-70
2021/06/03 02:10:23;;;;;;;8.27;5.68;;;14.50;99.90;;;13.51;96.28;97828.44;5043609;28;20513;-70
2021/06/03 02:13:15;;;;;;;8.25;4.88;;;14.50;99.90;;;13.48;96.44;97825.13;5023235;28;20044;-70
2021/06/03 02:16:09;;;;;;;7.55;4.47;;;14.50;99.90;;;13.52;96.58;97826.66;5055006;28;20191;-70
2021/06/03 02:19:07;;;;;;;10.55;5.07;;;14.40;99.90;;;13.50;96.70;97823.28;5040861;28;20041;-70
2021/06/03 02:21:56;;;;;;;8.27;5.25;;;14.40;99.90;;;13.45;97.13;97826.13;5049965;28;20116;-70
2021/06/03 02:24:44;;;;;;;8.52;5.30;;;14.40;99.90;;;13.38;97.97;97828.19;5044693;28;20106;-70
2021/06/03 02:27:32;;;;;;;10.27;5.90;;;14.40;99.90;;;13.42;97.88;97825.47;5042753;28;20123;-70
2021/06/03 02:30:21;;;;;;;7.60;5.30;;;14.40;99.90;;;13.40;97.05;97830.75;5066062;28;20561;-70
2021/06/03 02:32:59;;;;;;;8.07;5.50;;;14.30;99.90;;;13.28;97.90;97829.59;5045083;28;20057;-70
2021/06/03 02:35:28;;;;;;;14.38;6.38;;;14.20;99.90;;;13.29;98.23;97833.88;5061142;28;20139;-70
2021/06/03 02:37:55;;;;;;;8.82;5.22;;;14.30;99.90;;;13.28;98.58;97831.38;5059150;28;20049;-70
2021/06/03 02:40:31;;;;;;;9.57;5.97;;;14.30;99.90;;;13.19;99.04;97832.63;5043564;28;20128;-70
2021/06/03 02:42:59;;;;;;;12.43;6.20;;;14.30;99.90;;;13.17;99.41;97824.88;5051645;28;20090;-70
2021/06/03 02:45:30;;;;;;;9.45;6.47;;;14.30;99.90;;;13.15;100.00;97833.69;5053079;28;20095;-70
2021/06/03 02:47:58;;;;;;;10.95;5.68;;;14.30;99.90;;;13.24;99.40;97840.22;5054475;28;20037;-70
2021/06/03 02:50:26;;;;;;;10.80;7.07;;;14.30;99.90;;;13.12;99.91;97837.28;5055465;28;20037;-70
2021/06/03 02:52:55;;;;;;;8.55;5.65;;;14.20;99.90;;;13.15;99.66;97838.91;5053518;28;20044;-70
2021/06/03 02:55:23;;;;;;;9.15;6.07;;;14.20;99.90;;;13.23;99.67;97847.19;5053089;28;20079;-70
2021/06/03 02:57:51;;;;;;;12.52;7.20;;;14.20;99.90;;;13.19;99.79;97841.28;5054591;28;20528;-70
2021/06/03 03:00:31;;;;;;;7.55;6.10;;;14.20;99.90;;;13.26;99.21;97849.66;5070355;28;20505;-70
2021/06/03 03:03:00;;;;;;;8.82;6.80;;;14.20;99.90;;;13.27;99.27;97851.31;5054407;28;20049;-69
2021/06/03 03:05:31;;;;;;;7.78;6.25;;;14.30;99.90;;;13.28;99.15;97850.44;5057384;28;20052;-69
2021/06/03 03:07:58;;;;;;;8.73;6.15;;;14.30;99.90;;;13.32;99.36;97848.50;5055318;28;20115;-69
2021/06/03 03:10:35;;;;;;;8.40;5.53;;;14.40;99.90;;;13.41;98.62;97835.06;5055686;28;20041;-69
2021/06/03 03:13:02;;;;;;;15.32;6.28;;;14.40;99.90;;;13.26;99.42;97841.81;5052714;28;20053;-69
2021/06/03 03:15:29;;;;;;;10.55;5.68;;;14.40;99.90;;;13.15;100.00;97849.31;5037451;28;20041;-69
2021/06/03 03:17:57;;;;;;;9.65;6.20;;;14.40;99.90;;;13.14;100.00;97845.88;5055293;28;20044;-69
2021/06/03 03:20:28;;;;;;;8.68;6.18;;;14.40;99.90;;;13.13;100.00;97848.53;5033815;28;20387;-69
2021/06/03 03:22:56;;;;;;;7.50;5.90;;;14.40;99.90;;;13.18;100.00;97855.25;5048521;28;20525;-69
2021/06/03 03:25:27;;;;;;;8.43;6.03;;;14.40;99.90;;;13.11;100.00;97853.00;5040538;28;20482;-69
2021/06/03 03:27:55;;;;;;;8.10;6.28;;;14.40;99.90;;;13.21;100.00;97849.03;5069884;28;20432;-69
2021/06/03 03:30:27;;;;;;;8.50;5.38;;;14.40;99.90;;;13.22;100.00;97844.66;5062857;28;20387;-69
2021/06/03 03:32:56;;;;;;;7.85;5.88;;;14.30;99.90;;;13.26;100.00;97851.41;5051044;28;20086;-69
2021/06/03 03:35:23;;;;;;;7.28;5.25;;;14.30;99.90;;;13.26;99.83;97854.84;5065503;28;20052;-69
2021/06/03 03:37:51;;;;;;;7.90;6.35;;;14.30;99.90;;;13.10;100.00;97859.97;5066869;28;20083;-69
2021/06/03 03:40:22;;;;;;;10.02;6.85;;;14.30;99.90;;;13.18;100.00;97863.06;5040266;28;20078;-69
2021/06/03 03:42:50;;;;;;;16.70;6.97;;;14.30;99.90;;;13.20;100.00;97855.16;5044238;28;20049;-69
2021/06/03 03:45:21;;;;;;;8.82;5.88;;;14.30;99.90;;;13.26;100.00;97856.63;5058200;28;20037;-70
2021/06/03 03:47:48;;;;;;;7.88;4.78;;;14.30;99.90;;;13.41;99.57;97857.66;5036800;28;20513;-69
2021/06/03 03:50:17;;;;;;;8.50;5.85;;;14.30;99.90;;;13.29;100.00;97853.88;5046894;28;20062;-71
2021/06/03 03:52:46;;;;;;;10.80;6.32;;;14.40;99.90;;;13.35;99.91;97856.22;5051531;28;20037;-71
2021/06/03 03:55:15;;;;;;;8.52;5.90;;;14.40;99.90;;;13.35;99.83;97854.44;5051841;28;20036;-69
2021/06/03 03:57:45;;;;;;;6.55;5.05;;;14.40;99.90;;;13.36;99.59;97863.09;5036675;28;20445;-71
2021/06/03 04:00:36;;;;;;;9.32;6.10;;;14.50;99.90;;;13.35;99.83;97861.41;5057815;28;20122;-71
2021/06/03 04:03:23;;;;;;;8.07;5.32;;;14.50;99.90;;;13.44;99.26;97865.34;5068011;28;20052;-68
2021/06/03 04:06:10;;;;;;;9.93;5.53;;;14.50;99.90;;;13.47;99.12;97866.00;5066537;28;20044;-71
2021/06/03 04:08:45;;;;;;;8.45;5.95;;;14.50;99.90;;;13.54;98.64;97866.56;5052965;28;20047;-72
2021/06/03 04:11:12;;;;;;;7.32;6.22;;;14.60;99.90;;;13.65;97.70;97866.03;5056659;28;20045;-71
2021/06/03 04:13:39;;;;;;;6.60;3.90;;;14.60;99.90;;;13.93;96.00;97863.69;5045589;28;20048;-69
2021/06/03 04:16:06;;;;;;;7.03;4.10;;;14.60;99.90;;;14.12;94.40;97867.97;5065351;28;20409;-69
2021/06/03 04:18:33;;;;;;;4.63;3.47;;;14.80;99.90;;;14.32;92.83;97867.78;5065364;28;20083;-72
2021/06/03 04:21:00;;;;;;;4.80;3.38;;;14.90;99.90;;;14.55;91.28;97868.31;5041568;28;20041;-70
2021/06/03 04:23:27;;;;;;;6.78;4.25;;;15.10;99.90;;;14.46;91.25;97866.16;5051937;28;20049;-70
2021/06/03 04:25:54;;;;;;;9.07;5.00;;;15.20;99.90;;;14.46;91.79;97872.25;5055151;28;20095;-69
2021/06/03 04:28:21;;;;;;;5.45;4.13;;;15.30;99.90;;;14.43;92.04;97877.63;5033534;28;20047;-69
2021/06/03 04:30:48;;;;;;;9.30;5.28;;;15.40;99.90;;;14.14;94.02;97880.03;5055973;28;20115;-70
2021/06/03 04:33:20;;;;;;;12.73;5.07;;;15.30;99.90;;;14.10;94.33;97877.66;5050554;28;20451;-71
2021/06/03 04:35:51;;;;;;;9.75;5.47;;;15.30;99.90;;;13.97;94.91;97888.72;5059894;28;20520;-69
2021/06/03 04:38:18;;;;;;;5.47;3.50;;;15.40;99.90;;;14.28;93.97;97884.50;5033497;28;20056;-69
2021/06/03 04:40:45;;;;;;;5.88;4.78;;;15.40;99.90;;;14.25;93.47;97886.44;5026309;28;20056;-69
2021/06/03 04:43:12;;;;;;;8.18;4.15;;;15.40;99.90;;;14.48;92.45;97888.66;5046136;28;20143;-69
2021/06/03 04:45:40;;;;;;;6.55;4.60;;;15.40;99.90;;;14.39;92.83;97889.16;5035190;28;20052;-73
2021/06/03 04:48:08;;;;;;;14.15;5.30;;;15.40;99.90;;;14.45;92.34;97888.84;5058851;28;20040;-71
2021/06/03 04:50:37;;;;;;;10.40;5.20;;;15.40;99.90;;;14.37;92.53;97891.03;5047006;28;20097;-71
2021/06/03 04:53:05;;;;;;;6.68;4.25;;;15.40;99.90;;;14.44;92.52;97890.59;5067875;28;20040;-72
2021/06/03 04:55:34;;;;;;;7.25;4.47;;;15.40;99.90;;;14.38;93.47;97888.31;5054334;28;20102;-71
2021/06/03 04:58:04;;;;;;;6.10;4.38;;;15.40;99.90;;;14.58;92.98;97886.44;5051324;28;20044;-71
2021/06/03 05:00:35;;;;;;;14.70;6.80;;;15.50;99.90;;;14.61;92.16;97888.88;5038108;28;20051;-71
2021/06/03 05:03:04;;;;;;;7.45;5.20;;;15.60;99.90;;;14.91;90.70;97888.13;5050102;28;20045;-71
2021/06/03 05:05:32;;;;;;;5.85;5.00;;;15.70;99.90;;;14.82;91.45;97886.88;5061626;28;20135;-71
2021/06/03 05:07:59;;;;;;;9.68;5.18;;;15.70;99.90;;;14.66;92.93;97888.63;5058886;28;20041;-71
2021/06/03 05:10:27;;;;;;;12.48;5.15;;;15.80;99.90;;;14.66;93.52;97889.47;5058101;28;20114;-71
2021/06/03 05:12:55;;;;;;;7.05;4.78;;;16.00;99.90;;;14.82;93.46;97895.56;5067252;28;20090;-72
2021/06/03 05:15:22;;;;;;;7.15;4.90;;;16.00;99.90;;;14.82;93.32;97886.88;5060767;28;20383;-72
2021/06/03 05:17:51;;;;;;;5.72;4.40;;;16.00;99.90;;;14.91;92.68;97895.97;5061767;28;20040;-71
2021/06/03 05:20:27;;;;;;;5.97;4.50;;;16.10;99.90;;;14.84;93.46;97890.25;5050187;28;20041;-71
2021/06/03 05:22:58;;;;;;;6.65;4.63;;;16.20;99.90;;;14.86;93.57;97901.47;5070103;28;20048;-71
2021/06/03 05:25:29;;;;;;;7.80;4.53;;;16.20;99.90;;;14.91;93.18;97899.44;5058958;28;20062;-72
2021/06/03 05:27:56;;;;;;;8.07;5.10;;;16.20;99.90;;;14.95;93.10;97906.19;5038005;28;20040;-71
2021/06/03 05:30:25;;;;;;;7.35;4.60;;;16.30;99.90;;;15.04;92.49;97902.22;5032573;28;20052;-71
2021/06/03 05:32:52;;;;;;;6.25;3.60;;;16.30;99.90;;;15.31;91.98;97906.84;5050208;28;20041;-71
2021/06/03 05:35:21;;;;;;;12.45;5.30;;;16.30;99.90;;;15.18;91.98;97907.53;5050036;28;20483;-72
2021/06/03 05:37:49;;;;;;;9.50;4.97;;;16.40;99.90;;;15.35;91.09;97914.44;5055790;28;20102;-71
2021/06/03 05:40:23;;;;;;;6.60;4.45;;;16.40;99.90;;;15.45;91.22;97910.34;5034775;28;20036;-70
2021/06/03 05:42:52;;;;;;;17.42;5.40;;;16.50;99.90;;;15.54;90.45;97908.16;5047048;28;20041;-69
2021/06/03 05:45:20;;;;;;;7.65;4.68;;;16.60;99.90;;;15.59;89.85;97917.41;5059556;28;20037;-72
2021/06/03 05:47:49;;;;;;;5.93;4.43;;;16.80;99.90;;;15.83;88.91;97917.81;5040250;28;20157;-72
2021/06/03 05:50:20;;;;;;;6.43;4.80;;;17.00;99.90;;;15.77;89.15;97919.94;5060428;28;20045;-71
2021/06/03 05:52:47;;;;;;;4.88;3.83;;;17.20;99.90;;;16.10;87.29;97917.97;5051069;28;20118;-72
2021/06/03 05:55:15;;;;;;;6.60;4.07;;;17.20;99.90;;;16.30;86.66;97923.75;5056020;28;20045;-71
2021/06/03 05:57:43;;;;;;;5.15;3.53;;;17.30;99.90;;;16.47;86.94;97922.75;5057586;28;20041;-71
2021/06/03 06:00:19;;;;;;;8.30;4.38;;;17.40;99.90;;;16.47;86.42;97931.44;5046411;28;20410;-71
2021/06/03 06:02:53;;;;;;;10.07;4.90;;;17.60;99.90;;;16.40;87.31;97935.38;5055597;28;20483;-71
2021/06/03 06:08:29;;;;;;;7.00;3.97;;;18.00;99.90;;;16.98;82.51;97935.38;5059457;28;20033;-70
2021/06/03 06:11:17;;;;;;;4.45;3.30;;;18.10;99.90;;;17.36;81.14;97946.06;5050953;28;20045;-71
2021/06/03 06:13:53;;;;;;;6.95;3.63;;;18.40;99.90;;;17.59;80.10;97943.72;5061831;28;20050;-72
2021/06/03 06:16:20;;;;;;;4.40;2.70;;;18.50;99.90;;;17.70;78.29;97947.34;5051534;28;20041;-69
2021/06/03 06:18:48;;;;;;;7.07;3.55;;;18.60;99.90;;;17.52;80.88;97953.78;5039749;28;20049;-69
2021/06/03 06:21:18;;;;;;;5.03;2.50;;;18.80;99.90;;;18.04;77.80;97949.53;5041309;28;20079;-71
2021/06/03 06:23:46;;;;;;;3.78;2.20;;;18.80;99.90;;;18.08;77.53;97957.09;5049081;28;20532;-71
2021/06/03 06:26:14;;;;;;;3.63;2.53;;;19.00;99.90;;;18.22;77.25;97960.56;5058956;28;20064;-71
2021/06/03 06:28:41;;;;;;;4.93;2.55;;;19.00;99.90;;;18.39;75.29;97955.03;5057985;28;20103;-71
2021/06/03 06:31:09;;;;;;;4.65;2.50;;;19.20;99.90;;;18.59;75.72;97951.03;5046440;28;20068;-71
2021/06/03 06:33:37;;;;;;;6.45;2.83;;;19.30;99.90;;;18.59;74.69;97953.66;5048843;28;20590;-71
2021/06/03 06:36:06;;;;;;;4.20;2.30;;;19.30;99.90;;;18.63;75.39;97955.09;5040994;28;20049;-71
2021/06/03 06:38:34;;;;;;;6.78;2.53;;;19.30;99.90;;;18.56;73.92;97962.56;5055616;28;20110;-72
2021/06/03 06:41:01;;;;;;;4.65;2.30;;;19.60;99.90;;;18.77;73.52;97954.19;5048794;28;20044;-73
2021/06/03 06:43:28;;;;;;;7.70;2.83;;;19.60;99.90;;;19.00;74.25;97961.31;5050081;28;20119;-71
2021/06/03 06:45:55;;;;;;;6.90;2.40;;;19.70;99.90;;;18.63;73.02;97964.78;5020336;28;20045;-71
2021/06/03 06:48:43;;;;;;;4.63;2.40;;;19.80;99.90;;;18.75;74.72;97967.41;5049923;28;20038;-72
2021/06/03 06:51:10;;;;;;;4.63;2.55;;;19.80;99.90;;;18.89;73.18;97963.03;5059145;28;20561;-71
2021/06/03 06:53:37;;;;;;;5.80;2.90;;;19.80;99.90;;;18.71;73.22;97960.69;5049214;28;20061;-71
2021/06/03 06:56:04;;;;;;;4.57;2.50;;;19.50;99.90;;;19.10;73.07;97965.91;5048219;28;20154;-71
2021/06/03 06:58:31;;;;;;;6.20;2.58;;;19.50;99.90;;;19.13;72.97;97968.31;5059621;28;20451;-72
2021/06/03 07:01:00;;;;;;;6.10;2.90;;;19.70;99.90;;;19.00;72.23;97963.94;5053616;28;20052;-72
2021/06/03 07:03:27;;;;;;;4.88;2.50;;;19.70;99.90;;;18.87;73.80;97971.00;5024843;28;20065;-71
2021/06/03 07:05:54;;;;;;;5.43;2.58;;;19.60;99.90;;;19.10;72.72;97972.00;5058462;28;20098;-71
2021/06/03 07:08:21;;;;;;;6.18;2.80;;;19.80;99.90;;;18.83;72.22;97976.59;5050227;28;20105;-71
2021/06/03 07:10:48;;;;;;;7.47;2.50;;;19.80;99.90;;;19.07;72.91;97974.00;5048328;28;20064;-71
2021/06/03 07:13:16;;;;;;;8.02;3.38;;;19.90;99.90;;;19.37;71.90;97976.25;5050098;28;20098;-72
2021/06/03 07:15:43;;;;;;;5.28;2.65;;;20.00;99.90;;;19.39;70.49;97979.63;5028154;28;20044;-71
2021/06/03 07:18:10;;;;;;;4.97;3.00;;;20.10;99.90;;;19.78;69.11;97978.53;5062462;28;20056;-71
2021/06/03 07:20:38;;;;;;;6.22;3.03;;;20.20;99.90;;;19.52;70.25;97974.28;5040529;28;20446;-71
2021/06/03 07:23:06;;;;;;;7.15;3.00;;;20.30;99.90;;;19.40;69.59;97973.41;5050083;28;20445;-72
2021/06/03 07:25:57;;;;;;;6.05;3.20;;;20.40;99.90;;;19.55;69.65;97971.47;5046102;28;20033;-71
2021/06/03 07:28:46;;;;;;;4.35;2.58;;;20.20;99.90;;;19.75;69.63;97967.38;5064433;28;20048;-71
2021/06/03 07:31:13;;;;;;;8.43;3.65;;;20.40;99.90;;;20.04;69.40;97968.69;5056890;28;20041;-72
2021/06/03 07:33:40;;;;;;;5.72;3.55;;;20.60;99.90;;;19.43;70.59;97971.41;5054208;28;20522;-72
2021/06/03 07:36:08;;;;;;;14.57;3.00;;;20.40;99.90;;;19.39;70.73;97979.63;5048104;28;20040;-71
2021/06/03 07:38:36;;;;;;;5.38;2.63;;;20.40;99.90;;;19.75;69.23;97972.66;5052525;28;20040;-71
2021/06/03 07:41:04;;;;;;;6.23;3.53;;;20.30;99.90;;;19.04;72.87;97972.44;5069484;28;20086;-69
2021/06/03 07:43:31;;;;;;;7.78;3.50;;;20.50;99.90;;;19.22;71.70;97981.66;5035262;28;20040;-70
2021/06/03 07:45:58;;;;;;;5.72;3.30;;;20.40;99.90;;;19.68;70.60;97977.47;5057909;28;20041;-71
2021/06/03 07:48:26;;;;;;;5.95;3.22;;;20.40;99.90;;;20.15;70.27;97974.97;5051341;28;20111;-70
2021/06/03 07:51:13;;;;;;;4.60;2.90;;;20.70;99.90;;;20.61;68.90;97972.31;5039415;28;20165;-69
2021/06/03 07:53:52;;;;;;;8.13;3.10;;;21.20;99.90;;;20.84;66.80;97974.97;5065260;28;20062;-69
2021/06/03 07:56:19;;;;;;;7.55;3.42;;;21.40;99.90;;;20.83;67.14;97978.56;5043276;28;20048;-69
2021/06/03 07:58:46;;;;;;;6.13;3.33;;;21.60;99.90;;;21.09;67.43;97979.16;5055427;28;20040;-69
2021/06/03 08:01:13;;;;;;;6.70;3.20;;;21.90;99.90;;;20.75;66.59;97976.50;5067284;28;20123;-69
2021/06/03 08:03:41;;;;;;;4.88;3.42;;;21.80;99.90;;;20.85;66.27;97979.28;5038058;28;20087;-71
2021/06/03 08:06:09;;;;;;;7.35;3.75;;;21.80;99.90;;;20.89;67.00;97978.94;5065155;28;20037;-71
2021/06/03 08:08:37;;;;;;;5.72;2.78;;;21.80;99.90;;;21.46;65.47;97984.16;5039962;28;20104;-71
2021/06/03 08:11:06;;;;;;;4.85;3.10;;;22.00;99.90;;;21.16;66.03;97976.84;5038680;28;20673;-71
2021/06/03 08:13:34;;;;;;;5.95;3.08;;;22.20;99.90;;;20.72;66.04;97984.66;5050119;28;20048;-71
2021/06/03 08:16:22;;;;;;;5.53;3.03;;;22.30;99.90;;;21.00;65.60;97977.22;5045360;28;20044;-71
2021/06/03 08:18:56;;;;;;;6.80;3.15;;;22.40;99.90;;;20.23;68.06;97983.97;5055144;28;20075;-71
2021/06/03 08:21:24;;;;;;;4.88;2.90;;;22.70;99.90;;;20.61;67.57;97988.13;5070635;28;20075;-69
2021/06/03 08:23:51;;;;;;;7.10;2.90;;;22.80;99.90;;;21.57;65.15;97993.84;5041974;28;20126;-72
2021/06/03 08:26:19;;;;;;;6.57;2.65;;;23.00;99.90;;;22.44;63.67;97984.03;5042565;28;20505;-71
2021/06/03 08:28:46;;;;;;;7.28;2.88;;;23.60;99.90;;;22.81;61.44;97980.00;5051197;28;20041;-71
2021/06/03 08:31:13;;;;;;;4.35;2.10;;;24.30;99.90;;;23.99;59.42;97974.88;5060743;28;20106;-71
2021/06/03 08:33:40;;;;;;;5.25;2.55;;;25.20;99.90;;;22.14;62.13;97987.38;5036912;28;20128;-71
2021/06/03 08:36:07;;;;;;;6.90;2.40;;;25.20;99.90;;;22.69;60.79;97974.84;5052098;28;20490;-71
2021/06/03 08:38:34;;;;;;;7.47;2.88;;;25.00;99.90;;;22.61;59.60;97977.28;5054775;28;20115;-71
2021/06/03 08:41:01;;;;;;;5.05;2.30;;;24.80;99.90;;;22.98;60.44;97985.53;5050687;28;20110;-71
2021/06/03 08:43:32;;;;;;;4.07;2.20;;;25.00;99.90;;;22.50;60.44;97994.06;5038063;28;20059;-71
2021/06/03 08:46:02;;;;;;;3.92;1.83;;;24.70;99.90;;;22.68;60.92;97986.38;5014858;28;20083;-71
2021/06/03 08:48:30;;;;;;;5.28;2.25;;;24.40;99.90;;;22.30;59.53;97995.75;5053815;28;20041;-71
2021/06/03 08:51:01;;;;;;;4.22;1.85;;;24.20;99.90;;;23.10;57.12;97996.88;5047193;28;20106;-71
2021/06/03 08:53:29;;;;;;;6.20;2.00;;;24.30;99.90;;;24.22;56.38;97986.03;5042523;28;20043;-71
2021/06/03 08:56:14;;;;;;;3.38;1.80;;;24.60;99.90;;;24.60;54.63;97982.50;5060778;28;20055;-71
2021/06/03 08:59:02;;;;;;;6.45;2.28;;;25.00;99.90;;;22.13;60.28;98001.59;5052282;28;20045;-71
2021/06/03 09:01:30;;;;;;;5.38;2.35;;;25.70;99.90;;;21.99;61.75;98004.53;5044864;28;20082;-71
2021/06/03 09:03:58;;;;;;;4.75;2.20;;;25.60;99.90;;;23.51;60.36;97991.56;5048054;28;20046;-70
2021/06/03 09:06:31;;;;;;;5.82;2.10;;;25.90;99.90;;;23.85;57.82;97981.44;5042772;28;20040;-71
2021/06/03 09:08:59;;;;;;;6.97;2.00;;;26.10;99.90;;;23.23;57.65;98001.13;5048304;28;20053;-71
2021/06/03 09:11:30;;;;;;;4.53;2.00;;;25.40;99.90;;;22.96;58.03;97997.22;5058791;28;20039;-72
2021/06/03 09:14:19;;;;;;;5.35;2.20;;;24.80;99.90;;;22.71;59.48;98001.97;5049795;28;20068;-72
2021/06/03 09:17:00;;;;;;;4.75;2.05;;;24.40;99.90;;;22.96;58.50;97992.75;5051551;28;20850;-71
2021/06/03 09:19:27;;;;;;;3.50;1.98;;;24.30;99.90;;;22.94;60.84;97991.22;5050547;28;20116;-71
2021/06/03 09:21:54;;;;;;;3.13;1.83;;;24.40;99.90;;;23.74;55.80;97995.69;5041952;28;20113;-71
2021/06/03 09:24:25;;;;;;;2.90;1.80;;;24.40;99.90;;;24.42;54.68;97997.47;5057484;28;20118;-71
2021/06/03 09:27:01;;;;;;;4.95;1.98;;;25.00;99.90;;;24.79;54.84;97994.03;5050879;28;20090;-71
2021/06/03 09:29:35;;;;;;;3.80;1.80;;;25.30;99.90;;;23.63;58.26;97987.84;5054028;28;20051;-71
2021/06/03 09:32:06;;;;;;;3.78;2.33;;;25.80;99.90;;;23.92;56.51;98002.94;5044658;28;20102;-71
2021/06/03 09:34:35;;;;;;;3.13;1.77;;;25.90;99.90;;;22.78;59.10;98007.56;5049498;28;20494;-71
2021/06/03 09:37:05;;;;;;;5.57;1.95;;;26.20;99.90;;;22.31;60.39;98004.53;5065478;28;20501;-71
2021/06/03 09:39:38;;;;;;;4.03;2.35;;;26.20;99.90;;;22.16;60.66;98003.97;5050928;28;20098;-71
2021/06/03 09:42:18;;;;;;;4.97;1.90;;;25.30;99.90;;;22.53;61.06;97998.25;5046684;28;20079;-71
2021/06/03 09:45:06;;;;;;;3.67;1.77;;;24.70;99.90;;;23.05;58.49;97999.09;5049020;28;20045;-72
2021/06/03 09:47:54;;;;;;;4.63;1.70;;;24.40;99.90;;;24.20;55.09;97994.16;5047400;28;20140;-71
2021/06/03 09:50:41;;;;;;;3.33;1.88;;;25.00;99.90;;;24.80;55.57;97993.91;5041608;28;20052;-72
2021/06/03 09:54:10;;;;;;;4.32;1.75;;;26.10;99.90;;;24.05;55.98;97997.38;5059260;28;20033;-71
2021/06/03 09:57:06;;;;;;;5.57;1.80;;;26.20;99.90;;;23.38;58.01;97995.31;5050830;28;20040;-71
2021/06/03 10:00:21;;;;;;;3.55;1.65;;;25.90;99.90;;;22.36;59.50;98004.16;5040011;28;20040;-70
2021/06/03 10:03:09;;;;;;;2.75;1.55;;;25.50;99.90;;;22.65;58.50;97997.22;5036918;28;20125;-71
2021/06/03 10:06:01;;;;;;;3.20;1.58;;;25.80;99.90;;;24.63;55.50;97981.38;5055379;28;20040;-70
2021/06/03 10:08:48;;;;;;;;;;;26.50;99.90;;;26.40;51.51;97985.50;5051609;28;20045;-69
2021/06/03 10:11:47;;;;;;;2.55;1.48;;;27.50;99.90;;;26.89;48.72;97985.81;5050504;28;19928;-70
2021/06/03 10:14:17;;;;;;;4.13;1.70;;;28.40;99.90;;;27.24;48.60;97978.69;5052355;28;20482;-70
2021/06/03 10:16:45;;;;;;;2.80;1.00;;;29.00;99.90;;;28.19;45.53;97979.22;5056506;28;20097;-70
2021/06/03 10:19:23;;;;;;;2.55;1.10;;;29.40;99.90;;;27.21;45.50;97984.31;5055510;28;20045;-69
2021/06/03 10:22:17;;;;;;;6.05;1.70;;;29.80;99.90;;;25.42;52.04;97988.06;5045609;28;20037;-69
2021/06/03 10:25:06;;;;;;;4.03;1.80;;;29.00;99.90;;;23.93;53.48;97994.84;5038332;28;20048;-70
2021/06/03 10:28:06;;;;;;;6.13;1.50;;;27.80;99.90;;;25.93;50.07;97991.09;5062261;28;20437;-70
2021/06/03 10:30:58;;;;;;;4.35;1.70;;;27.30;99.90;;;25.43;51.46;97979.94;5049250;28;20505;-70
2021/06/03 10:33:30;;;;;;;3.63;1.55;;;27.20;99.90;;;23.53;54.43;97995.75;5060404;28;20090;-69
2021/06/03 10:36:01;;;;;;;5.38;1.20;;;26.60;99.90;;;25.01;50.53;97979.56;5058500;28;20040;-70
2021/06/03 10:38:29;;;;;;;4.95;1.50;;;26.60;99.90;;;25.04;50.65;97981.94;5055815;28;20103;-69
2021/06/03 10:41:04;;;;;;;5.32;1.55;;;27.50;99.90;;;24.15;52.48;97979.63;5069418;28;20048;-70
2021/06/03 10:43:36;;;;;;;2.75;1.65;;;27.70;99.90;;;25.54;49.43;97973.56;5033177;28;20037;-69